sensor_id;sensor_type;location;lat;lon;timestamp;temperature;humidity
36002;DHT22;22070;50.922;5.430;2023-05-10T00:02:07;14.20;99.90
36002;DHT22;22070;50.922;5.430;2023-05-10T00:04:33;14.20;99.90
36002;DHT22;22070;50.922;5.430;2023-05-10T00:06:58;14.10;99.90
36002;DHT22;22070;50.922;5.430;2023-05-10T00:09:24;14.10;99.90
36002;DHT22;22070;50.922;5.430;2023-05-10T00:11:50;14.10;99.90
36002;DHT22;22070;50.922;5.430;2023-05-10T00:14:16;14.10;99.90
36002;DHT22;22070;50.922;5.430;2023-05-10T00:16:42;14.10;99.90
36002;DHT22;22070;50.922;5.430;2023-05-10T00:19:07;14.10;99.90
36002;DHT22;22070;50.922;5.430;2023-05-10T00:21:33;14.20;99.90
36002;DHT22;22070;50.922;5.430;2023-05-10T00:23:59;14.20;99.90
36002;DHT22;22070;50.922;5.430;2023-05-10T00:26:25;14.20;99.90
36002;DHT22;22070;50.922;5.430;2023-05-10T00:28:51;14.10;99.90
36002;DHT22;22070;50.922;5.430;2023-05-10T00:31:16;14.10;99.90
36002;DHT22;22070;50.922;5.430;2023-05-10T00:33:42;14.20;99.90
36002;DHT22;22070;50.922;5.430;2023-05-10T00:36:08;14.20;99.90
36002;DHT22;22070;50.922;5.430;2023-05-10T00:38:34;14.20;99.90
36002;DHT22;22070;50.922;5.430;2023-05-10T00:40:59;14.30;99.90
36002;DHT22;22070;50.922;5.430;2023-05-10T00:43:25;14.30;99.90
36002;DHT22;22070;50.922;5.430;2023-05-10T00:45:51;14.30;99.90
36002;DHT22;22070;50.922;5.430;2023-05-10T00:48:17;14.20;99.90
36002;DHT22;22070;50.922;5.430;2023-05-10T00:50:43;14.20;99.90
36002;DHT22;22070;50.922;5.430;2023-05-10T00:53:10;14.10;99.90
36002;DHT22;22070;50.922;5.430;2023-05-10T00:55:36;14.20;99.90
36002;DHT22;22070;50.922;5.430;2023-05-10T00:58:02;14.10;99.90
36002;DHT22;22070;50.922;5.430;2023-05-10T01:00:27;14.10;99.90
36002;DHT22;22070;50.922;5.430;2023-05-10T01:02:54;14.10;99.90
36002;DHT22;22070;50.922;5.430;2023-05-10T01:05:19;14.10;99.90
36002;DHT22;22070;50.922;5.430;2023-05-10T01:07:45;14.10;99.90
36002;DHT22;22070;50.922;5.430;2023-05-10T01:10:11;14.10;99.90
36002;DHT22;22070;50.922;5.430;2023-05-10T01:12:39;14.00;99.90
36002;DHT22;22070;50.922;5.430;2023-05-10T01:15:07;14.10;99.90
36002;DHT22;22070;50.922;5.430;2023-05-10T01:17:35;14.10;99.90
36002;DHT22;22070;50.922;5.430;2023-05-10T01:20:01;14.10;99.90
36002;DHT22;22070;50.922;5.430;2023-05-10T01:28:08;13.90;99.90
36002;DHT22;22070;50.922;5.430;2023-05-10T01:30:46;13.90;99.90
36002;DHT22;22070;50.922;5.430;2023-05-10T01:33:52;13.90;99.90
36002;DHT22;22070;50.922;5.430;2023-05-10T01:36:38;13.80;99.90
36002;DHT22;22070;50.922;5.430;2023-05-10T01:42:11;13.80;99.90
36002;DHT22;22070;50.922;5.430;2023-05-10T01:45:47;13.80;99.90
36002;DHT22;22070;50.922;5.430;2023-05-10T01:47:46;13.80;99.90
36002;DHT22;22070;50.922;5.430;2023-05-10T01:50:17;13.70;99.90
36002;DHT22;22070;50.922;5.430;2023-05-10T01:52:47;13.70;99.90
36002;DHT22;22070;50.922;5.430;2023-05-10T01:55:16;13.70;99.90
36002;DHT22;22070;50.922;5.430;2023-05-10T01:57:44;13.70;99.90
36002;DHT22;22070;50.922;5.430;2023-05-10T02:00:12;13.80;99.90
36002;DHT22;22070;50.922;5.430;2023-05-10T02:02:48;13.70;99.90
36002;DHT22;22070;50.922;5.430;2023-05-10T02:05:15;13.70;99.90
36002;DHT22;22070;50.922;5.430;2023-05-10T02:07:42;13.70;99.90
36002;DHT22;22070;50.922;5.430;2023-05-10T02:10:09;13.70;99.90
36002;DHT22;22070;50.922;5.430;2023-05-10T02:12:37;13.70;99.90
36002;DHT22;22070;50.922;5.430;2023-05-10T02:15:05;13.60;99.90
36002;DHT22;22070;50.922;5.430;2023-05-10T02:17:32;13.60;99.90
36002;DHT22;22070;50.922;5.430;2023-05-10T02:19:59;13.60;99.90
36002;DHT22;22070;50.922;5.430;2023-05-10T02:22:27;13.60;99.90
36002;DHT22;22070;50.922;5.430;2023-05-10T02:24:55;13.60;99.90
36002;DHT22;22070;50.922;5.430;2023-05-10T02:27:24;13.50;99.90
36002;DHT22;22070;50.922;5.430;2023-05-10T02:29:51;13.70;99.90
36002;DHT22;22070;50.922;5.430;2023-05-10T02:32:18;13.70;99.90
36002;DHT22;22070;50.922;5.430;2023-05-10T02:34:45;13.70;99.90
36002;DHT22;22070;50.922;5.430;2023-05-10T02:37:14;13.70;99.90
36002;DHT22;22070;50.922;5.430;2023-05-10T02:39:41;13.70;99.90
36002;DHT22;22070;50.922;5.430;2023-05-10T02:42:16;13.70;99.90
36002;DHT22;22070;50.922;5.430;2023-05-10T02:44:43;13.70;99.90
36002;DHT22;22070;50.922;5.430;2023-05-10T02:47:11;13.60;99.90
36002;DHT22;22070;50.922;5.430;2023-05-10T02:49:36;13.70;99.90
36002;DHT22;22070;50.922;5.430;2023-05-10T02:52:05;13.60;99.90
36002;DHT22;22070;50.922;5.430;2023-05-10T02:54:41;13.70;99.90
36002;DHT22;22070;50.922;5.430;2023-05-10T02:57:13;13.70;99.90
36002;DHT22;22070;50.922;5.430;2023-05-10T02:59:40;13.70;99.90
36002;DHT22;22070;50.922;5.430;2023-05-10T03:02:08;13.70;99.90
36002;DHT22;22070;50.922;5.430;2023-05-10T03:04:35;13.70;99.90
36002;DHT22;22070;50.922;5.430;2023-05-10T03:07:01;13.70;99.90
36002;DHT22;22070;50.922;5.430;2023-05-10T03:09:27;13.70;99.90
36002;DHT22;22070;50.922;5.430;2023-05-10T03:12:11;13.60;99.90
36002;DHT22;22070;50.922;5.430;2023-05-10T03:17:30;13.60;99.90
36002;DHT22;22070;50.922;5.430;2023-05-10T03:20:04;13.60;99.90
36002;DHT22;22070;50.922;5.430;2023-05-10T03:22:37;13.60;99.90
36002;DHT22;22070;50.922;5.430;2023-05-10T03:25:06;13.60;99.90
36002;DHT22;22070;50.922;5.430;2023-05-10T03:27:32;13.70;99.90
36002;DHT22;22070;50.922;5.430;2023-05-10T03:29:58;13.70;99.90
36002;DHT22;22070;50.922;5.430;2023-05-10T03:32:26;13.60;99.90
36002;DHT22;22070;50.922;5.430;2023-05-10T03:34:52;13.50;99.90
36002;DHT22;22070;50.922;5.430;2023-05-10T03:37:18;13.60;99.90
36002;DHT22;22070;50.922;5.430;2023-05-10T03:39:44;13.60;99.90
36002;DHT22;22070;50.922;5.430;2023-05-10T03:42:09;13.50;99.90
36002;DHT22;22070;50.922;5.430;2023-05-10T03:44:38;13.50;99.90
36002;DHT22;22070;50.922;5.430;2023-05-10T03:47:04;13.60;99.90
36002;DHT22;22070;50.922;5.430;2023-05-10T03:49:29;13.60;99.90
36002;DHT22;22070;50.922;5.430;2023-05-10T03:51:55;13.60;99.90
36002;DHT22;22070;50.922;5.430;2023-05-10T03:54:21;13.50;99.90
36002;DHT22;22070;50.922;5.430;2023-05-10T03:56:46;13.60;99.90
36002;DHT22;22070;50.922;5.430;2023-05-10T03:59:13;13.60;99.90
36002;DHT22;22070;50.922;5.430;2023-05-10T04:01:39;13.60;99.90
36002;DHT22;22070;50.922;5.430;2023-05-10T04:04:05;13.70;99.90
36002;DHT22;22070;50.922;5.430;2023-05-10T04:06:30;13.70;99.90
36002;DHT22;22070;50.922;5.430;2023-05-10T04:08:56;13.60;99.90
36002;DHT22;22070;50.922;5.430;2023-05-10T04:11:25;13.60;99.90
36002;DHT22;22070;50.922;5.430;2023-05-10T04:13:50;13.80;99.90
36002;DHT22;22070;50.922;5.430;2023-05-10T04:16:16;13.80;99.90
36002;DHT22;22070;50.922;5.430;2023-05-10T04:18:42;13.90;99.90
36002;DHT22;22070;50.922;5.430;2023-05-10T04:21:14;13.80;99.90
36002;DHT22;22070;50.922;5.430;2023-05-10T04:23:40;13.80;99.90
36002;DHT22;22070;50.922;5.430;2023-05-10T04:26:06;13.70;99.90
36002;DHT22;22070;50.922;5.430;2023-05-10T04:28:32;13.60;99.90
36002;DHT22;22070;50.922;5.430;2023-05-10T04:31:05;13.50;99.90
36002;DHT22;22070;50.922;5.430;2023-05-10T04:33:30;13.50;99.90
36002;DHT22;22070;50.922;5.430;2023-05-10T04:35:56;13.40;99.90
36002;DHT22;22070;50.922;5.430;2023-05-10T04:38:22;13.30;99.90
36002;DHT22;22070;50.922;5.430;2023-05-10T04:40:47;13.20;99.90
36002;DHT22;22070;50.922;5.430;2023-05-10T04:43:13;13.20;99.90
36002;DHT22;22070;50.922;5.430;2023-05-10T04:45:39;13.20;99.90
36002;DHT22;22070;50.922;5.430;2023-05-10T04:48:05;13.20;99.90
36002;DHT22;22070;50.922;5.430;2023-05-10T04:50:30;13.30;99.90
36002;DHT22;22070;50.922;5.430;2023-05-10T04:52:57;13.30;99.90
36002;DHT22;22070;50.922;5.430;2023-05-10T04:55:23;13.30;99.90
36002;DHT22;22070;50.922;5.430;2023-05-10T04:57:48;13.30;99.90
36002;DHT22;22070;50.922;5.430;2023-05-10T05:00:14;13.30;99.90
36002;DHT22;22070;50.922;5.430;2023-05-10T05:02:43;13.30;99.90
36002;DHT22;22070;50.922;5.430;2023-05-10T05:05:12;13.40;99.90
36002;DHT22;22070;50.922;5.430;2023-05-10T05:07:38;13.50;99.90
36002;DHT22;22070;50.922;5.430;2023-05-10T05:10:07;13.40;99.90
36002;DHT22;22070;50.922;5.430;2023-05-10T05:12:34;13.40;99.90
36002;DHT22;22070;50.922;5.430;2023-05-10T05:15:00;13.40;99.90
36002;DHT22;22070;50.922;5.430;2023-05-10T05:17:26;13.30;99.90
36002;DHT22;22070;50.922;5.430;2023-05-10T05:19:52;13.30;99.90
36002;DHT22;22070;50.922;5.430;2023-05-10T05:22:18;13.30;99.90
36002;DHT22;22070;50.922;5.430;2023-05-10T05:24:55;13.20;99.90
36002;DHT22;22070;50.922;5.430;2023-05-10T05:27:22;13.30;99.90
36002;DHT22;22070;50.922;5.430;2023-05-10T05:29:53;13.30;99.90
36002;DHT22;22070;50.922;5.430;2023-05-10T05:32:19;13.40;99.90
36002;DHT22;22070;50.922;5.430;2023-05-10T05:34:45;13.40;99.90
36002;DHT22;22070;50.922;5.430;2023-05-10T05:37:29;13.50;99.90
36002;DHT22;22070;50.922;5.430;2023-05-10T05:39:55;13.60;99.90
36002;DHT22;22070;50.922;5.430;2023-05-10T05:42:20;13.50;99.90
36002;DHT22;22070;50.922;5.430;2023-05-10T05:44:46;13.40;99.90
36002;DHT22;22070;50.922;5.430;2023-05-10T05:47:11;13.40;99.90
36002;DHT22;22070;50.922;5.430;2023-05-10T05:49:37;13.30;99.90
36002;DHT22;22070;50.922;5.430;2023-05-10T05:52:03;13.40;99.90
36002;DHT22;22070;50.922;5.430;2023-05-10T05:54:30;13.50;99.90
36002;DHT22;22070;50.922;5.430;2023-05-10T05:57:00;13.30;99.90
36002;DHT22;22070;50.922;5.430;2023-05-10T05:59:26;13.30;99.90
36002;DHT22;22070;50.922;5.430;2023-05-10T06:01:52;13.30;99.90
36002;DHT22;22070;50.922;5.430;2023-05-10T06:04:18;13.50;99.90
36002;DHT22;22070;50.922;5.430;2023-05-10T06:06:44;13.40;99.90
36002;DHT22;22070;50.922;5.430;2023-05-10T06:09:10;13.40;99.90
36002;DHT22;22070;50.922;5.430;2023-05-10T06:11:36;13.40;99.90
36002;DHT22;22070;50.922;5.430;2023-05-10T06:14:02;13.40;99.90
36002;DHT22;22070;50.922;5.430;2023-05-10T06:16:30;13.40;99.90
36002;DHT22;22070;50.922;5.430;2023-05-10T06:18:55;13.50;99.90
36002;DHT22;22070;50.922;5.430;2023-05-10T06:21:21;13.50;99.90
36002;DHT22;22070;50.922;5.430;2023-05-10T06:23:47;13.50;99.90
36002;DHT22;22070;50.922;5.430;2023-05-10T06:26:13;13.50;99.90
36002;DHT22;22070;50.922;5.430;2023-05-10T06:28:39;13.60;99.90
36002;DHT22;22070;50.922;5.430;2023-05-10T06:31:05;13.60;99.90
36002;DHT22;22070;50.922;5.430;2023-05-10T06:33:31;13.60;99.90
36002;DHT22;22070;50.922;5.430;2023-05-10T06:35:56;13.60;99.90
36002;DHT22;22070;50.922;5.430;2023-05-10T06:38:22;13.60;99.90
36002;DHT22;22070;50.922;5.430;2023-05-10T06:40:48;13.60;99.90
36002;DHT22;22070;50.922;5.430;2023-05-10T06:43:14;13.60;99.90
36002;DHT22;22070;50.922;5.430;2023-05-10T06:45:40;13.60;99.90
36002;DHT22;22070;50.922;5.430;2023-05-10T06:48:06;13.60;99.90
36002;DHT22;22070;50.922;5.430;2023-05-10T06:50:32;13.60;99.90
36002;DHT22;22070;50.922;5.430;2023-05-10T06:52:58;13.70;99.90
36002;DHT22;22070;50.922;5.430;2023-05-10T06:55:24;13.70;99.90
36002;DHT22;22070;50.922;5.430;2023-05-10T06:57:50;13.80;99.90
36002;DHT22;22070;50.922;5.430;2023-05-10T07:00:16;13.70;99.90
36002;DHT22;22070;50.922;5.430;2023-05-10T07:02:42;13.70;99.90
36002;DHT22;22070;50.922;5.430;2023-05-10T07:05:08;13.80;99.90
36002;DHT22;22070;50.922;5.430;2023-05-10T07:07:34;13.90;99.90
36002;DHT22;22070;50.922;5.430;2023-05-10T07:10:00;13.70;99.90
36002;DHT22;22070;50.922;5.430;2023-05-10T07:12:26;13.80;99.90
36002;DHT22;22070;50.922;5.430;2023-05-10T07:14:52;13.70;99.90
36002;DHT22;22070;50.922;5.430;2023-05-10T07:17:17;13.70;99.90
36002;DHT22;22070;50.922;5.430;2023-05-10T07:19:43;13.70;99.90
36002;DHT22;22070;50.922;5.430;2023-05-10T07:22:09;13.80;99.90
36002;DHT22;22070;50.922;5.430;2023-05-10T07:24:34;13.80;99.90
36002;DHT22;22070;50.922;5.430;2023-05-10T07:27:00;13.80;99.90
36002;DHT22;22070;50.922;5.430;2023-05-10T07:29:26;13.80;99.90
36002;DHT22;22070;50.922;5.430;2023-05-10T07:31:52;13.80;99.90
36002;DHT22;22070;50.922;5.430;2023-05-10T07:34:18;13.80;99.90
36002;DHT22;22070;50.922;5.430;2023-05-10T07:36:44;13.80;99.90
36002;DHT22;22070;50.922;5.430;2023-05-10T07:39:09;13.70;99.90
36002;DHT22;22070;50.922;5.430;2023-05-10T07:41:35;13.70;99.90
36002;DHT22;22070;50.922;5.430;2023-05-10T07:44:03;13.80;99.90
36002;DHT22;22070;50.922;5.430;2023-05-10T07:46:29;13.90;99.90
36002;DHT22;22070;50.922;5.430;2023-05-10T07:48:54;13.90;99.90
36002;DHT22;22070;50.922;5.430;2023-05-10T07:51:20;13.80;99.90
36002;DHT22;22070;50.922;5.430;2023-05-10T07:53:46;13.90;99.90
36002;DHT22;22070;50.922;5.430;2023-05-10T07:56:26;14.10;99.90
36002;DHT22;22070;50.922;5.430;2023-05-10T07:58:55;14.00;99.90
36002;DHT22;22070;50.922;5.430;2023-05-10T08:01:21;14.00;99.90
36002;DHT22;22070;50.922;5.430;2023-05-10T08:03:47;14.10;99.90
36002;DHT22;22070;50.922;5.430;2023-05-10T08:06:14;14.00;99.90
36002;DHT22;22070;50.922;5.430;2023-05-10T08:08:41;14.10;99.90
36002;DHT22;22070;50.922;5.430;2023-05-10T08:11:06;14.00;99.90
36002;DHT22;22070;50.922;5.430;2023-05-10T08:13:32;14.00;99.90
36002;DHT22;22070;50.922;5.430;2023-05-10T08:15:58;13.90;99.90
36002;DHT22;22070;50.922;5.430;2023-05-10T08:18:23;13.90;99.90
36002;DHT22;22070;50.922;5.430;2023-05-10T08:20:49;13.90;99.90
36002;DHT22;22070;50.922;5.430;2023-05-10T08:23:15;13.80;99.90
36002;DHT22;22070;50.922;5.430;2023-05-10T08:25:41;13.60;99.90
36002;DHT22;22070;50.922;5.430;2023-05-10T08:28:06;13.70;99.90
36002;DHT22;22070;50.922;5.430;2023-05-10T08:30:32;13.70;99.90
36002;DHT22;22070;50.922;5.430;2023-05-10T08:32:58;13.60;99.90
36002;DHT22;22070;50.922;5.430;2023-05-10T08:35:23;13.60;99.90
36002;DHT22;22070;50.922;5.430;2023-05-10T08:37:50;13.60;99.90
36002;DHT22;22070;50.922;5.430;2023-05-10T08:40:16;13.60;99.90
36002;DHT22;22070;50.922;5.430;2023-05-10T08:42:49;13.50;99.90
36002;DHT22;22070;50.922;5.430;2023-05-10T08:45:17;13.40;99.90
36002;DHT22;22070;50.922;5.430;2023-05-10T08:47:44;13.40;99.90
36002;DHT22;22070;50.922;5.430;2023-05-10T08:50:10;13.40;99.90
36002;DHT22;22070;50.922;5.430;2023-05-10T08:52:38;13.40;99.90
36002;DHT22;22070;50.922;5.430;2023-05-10T08:55:07;13.40;99.90
36002;DHT22;22070;50.922;5.430;2023-05-10T08:57:33;13.50;99.90
36002;DHT22;22070;50.922;5.430;2023-05-10T09:00:00;13.40;99.90
36002;DHT22;22070;50.922;5.430;2023-05-10T09:02:26;13.40;99.90
36002;DHT22;22070;50.922;5.430;2023-05-10T09:04:52;13.30;99.90
36002;DHT22;22070;50.922;5.430;2023-05-10T09:07:18;13.30;99.90
36002;DHT22;22070;50.922;5.430;2023-05-10T09:09:45;13.20;99.90
36002;DHT22;22070;50.922;5.430;2023-05-10T09:12:13;13.10;99.90
36002;DHT22;22070;50.922;5.430;2023-05-10T09:14:40;13.10;99.90
36002;DHT22;22070;50.922;5.430;2023-05-10T09:17:07;13.10;99.90
36002;DHT22;22070;50.922;5.430;2023-05-10T09:19:33;13.10;99.90
36002;DHT22;22070;50.922;5.430;2023-05-10T09:21:59;13.10;99.90
36002;DHT22;22070;50.922;5.430;2023-05-10T09:24:27;13.20;99.90
36002;DHT22;22070;50.922;5.430;2023-05-10T09:26:52;13.20;99.90
36002;DHT22;22070;50.922;5.430;2023-05-10T09:29:18;13.20;99.90
36002;DHT22;22070;50.922;5.430;2023-05-10T09:31:50;13.20;99.90
36002;DHT22;22070;50.922;5.430;2023-05-10T09:34:28;13.30;99.90
36002;DHT22;22070;50.922;5.430;2023-05-10T09:36:57;13.30;99.90
36002;DHT22;22070;50.922;5.430;2023-05-10T09:39:38;13.30;99.90
36002;DHT22;22070;50.922;5.430;2023-05-10T09:42:08;13.40;99.90
36002;DHT22;22070;50.922;5.430;2023-05-10T09:44:35;13.70;99.90
36002;DHT22;22070;50.922;5.430;2023-05-10T09:47:03;13.60;99.90
36002;DHT22;22070;50.922;5.430;2023-05-10T09:49:30;13.80;99.90
36002;DHT22;22070;50.922;5.430;2023-05-10T09:52:06;13.80;99.90
36002;DHT22;22070;50.922;5.430;2023-05-10T09:54:32;13.90;99.90
36002;DHT22;22070;50.922;5.430;2023-05-10T09:56:58;13.90;99.90
36002;DHT22;22070;50.922;5.430;2023-05-10T09:59:27;14.00;99.90
36002;DHT22;22070;50.922;5.430;2023-05-10T10:01:57;13.90;99.90
36002;DHT22;22070;50.922;5.430;2023-05-10T10:04:23;13.90;99.90
36002;DHT22;22070;50.922;5.430;2023-05-10T10:06:59;14.00;99.90
36002;DHT22;22070;50.922;5.430;2023-05-10T10:09:25;14.00;99.90
36002;DHT22;22070;50.922;5.430;2023-05-10T10:11:51;14.10;99.90
36002;DHT22;22070;50.922;5.430;2023-05-10T10:14:18;14.10;99.90
36002;DHT22;22070;50.922;5.430;2023-05-10T10:16:44;14.10;99.90
36002;DHT22;22070;50.922;5.430;2023-05-10T10:19:10;14.10;99.90
36002;DHT22;22070;50.922;5.430;2023-05-10T10:21:36;14.10;99.90
36002;DHT22;22070;50.922;5.430;2023-05-10T10:24:02;14.10;99.90
36002;DHT22;22070;50.922;5.430;2023-05-10T10:26:30;14.10;99.90
36002;DHT22;22070;50.922;5.430;2023-05-10T10:32:09;14.20;99.90
36002;DHT22;22070;50.922;5.430;2023-05-10T10:34:38;14.20;99.90
36002;DHT22;22070;50.922;5.430;2023-05-10T10:37:06;14.10;99.90
36002;DHT22;22070;50.922;5.430;2023-05-10T10:39:32;14.20;99.90
36002;DHT22;22070;50.922;5.430;2023-05-10T10:41:58;14.20;99.90
36002;DHT22;22070;50.922;5.430;2023-05-10T10:49:30;14.10;99.90
36002;DHT22;22070;50.922;5.430;2023-05-10T10:52:23;14.10;99.90
36002;DHT22;22070;50.922;5.430;2023-05-10T10:54:53;14.10;99.90
36002;DHT22;22070;50.922;5.430;2023-05-10T10:57:22;14.10;99.90
36002;DHT22;22070;50.922;5.430;2023-05-10T10:59:48;14.20;99.90
36002;DHT22;22070;50.922;5.430;2023-05-10T11:02:53;14.30;99.90
36002;DHT22;22070;50.922;5.430;2023-05-10T11:07:56;14.40;99.90
36002;DHT22;22070;50.922;5.430;2023-05-10T11:10:23;14.50;99.90
36002;DHT22;22070;50.922;5.430;2023-05-10T11:13:05;14.60;99.90
36002;DHT22;22070;50.922;5.430;2023-05-10T11:15:33;14.70;99.90
36002;DHT22;22070;50.922;5.430;2023-05-10T11:17:59;14.70;99.90
36002;DHT22;22070;50.922;5.430;2023-05-10T11:20:28;15.00;99.90
36002;DHT22;22070;50.922;5.430;2023-05-10T11:23:14;14.90;99.90
36002;DHT22;22070;50.922;5.430;2023-05-10T11:25:44;14.90;99.90
36002;DHT22;22070;50.922;5.430;2023-05-10T11:28:10;15.00;99.90
36002;DHT22;22070;50.922;5.430;2023-05-10T11:30:38;15.00;99.90
36002;DHT22;22070;50.922;5.430;2023-05-10T11:33:05;14.90;99.90
36002;DHT22;22070;50.922;5.430;2023-05-10T11:35:37;15.00;99.90
36002;DHT22;22070;50.922;5.430;2023-05-10T11:38:09;15.00;99.90
36002;DHT22;22070;50.922;5.430;2023-05-10T11:40:36;14.80;99.90
36002;DHT22;22070;50.922;5.430;2023-05-10T11:43:02;14.80;99.90
36002;DHT22;22070;50.922;5.430;2023-05-10T11:45:29;14.60;99.90
36002;DHT22;22070;50.922;5.430;2023-05-10T11:47:56;14.60;99.90
36002;DHT22;22070;50.922;5.430;2023-05-10T11:50:22;14.60;99.90
36002;DHT22;22070;50.922;5.430;2023-05-10T11:53:06;14.50;99.90
36002;DHT22;22070;50.922;5.430;2023-05-10T11:55:33;14.60;99.90
36002;DHT22;22070;50.922;5.430;2023-05-10T11:58:00;14.60;99.90
36002;DHT22;22070;50.922;5.430;2023-05-10T12:00:27;14.60;99.90
36002;DHT22;22070;50.922;5.430;2023-05-10T12:02:52;14.80;99.90
36002;DHT22;22070;50.922;5.430;2023-05-10T12:05:19;14.60;99.90
36002;DHT22;22070;50.922;5.430;2023-05-10T12:07:44;14.60;99.90
36002;DHT22;22070;50.922;5.430;2023-05-10T12:10:12;14.70;99.90
36002;DHT22;22070;50.922;5.430;2023-05-10T12:12:46;14.70;99.90
36002;DHT22;22070;50.922;5.430;2023-05-10T12:15:23;14.70;99.90
36002;DHT22;22070;50.922;5.430;2023-05-10T12:17:50;14.80;99.90
36002;DHT22;22070;50.922;5.430;2023-05-10T12:20:17;14.70;99.90
36002;DHT22;22070;50.922;5.430;2023-05-10T12:22:48;14.80;99.90
36002;DHT22;22070;50.922;5.430;2023-05-10T12:25:15;15.00;99.90
36002;DHT22;22070;50.922;5.430;2023-05-10T12:27:41;15.10;99.90
36002;DHT22;22070;50.922;5.430;2023-05-10T12:30:12;15.40;99.90
36002;DHT22;22070;50.922;5.430;2023-05-10T12:32:44;15.50;99.90
36002;DHT22;22070;50.922;5.430;2023-05-10T12:35:10;15.60;99.90
36002;DHT22;22070;50.922;5.430;2023-05-10T12:37:36;15.60;99.90
36002;DHT22;22070;50.922;5.430;2023-05-10T12:40:08;15.70;99.90
36002;DHT22;22070;50.922;5.430;2023-05-10T12:42:35;15.60;99.90
36002;DHT22;22070;50.922;5.430;2023-05-10T12:45:01;15.70;99.90
36002;DHT22;22070;50.922;5.430;2023-05-10T12:47:28;15.70;99.90
36002;DHT22;22070;50.922;5.430;2023-05-10T12:49:53;15.80;99.90
36002;DHT22;22070;50.922;5.430;2023-05-10T12:52:19;15.90;99.90
36002;DHT22;22070;50.922;5.430;2023-05-10T12:54:45;15.90;99.90
36002;DHT22;22070;50.922;5.430;2023-05-10T12:57:11;15.90;99.90
36002;DHT22;22070;50.922;5.430;2023-05-10T12:59:36;15.90;99.90
36002;DHT22;22070;50.922;5.430;2023-05-10T13:02:02;15.90;99.90
36002;DHT22;22070;50.922;5.430;2023-05-10T13:04:28;16.00;99.90
36002;DHT22;22070;50.922;5.430;2023-05-10T13:06:53;16.00;99.90
36002;DHT22;22070;50.922;5.430;2023-05-10T13:09:21;16.20;99.90
36002;DHT22;22070;50.922;5.430;2023-05-10T13:11:47;16.10;99.90
36002;DHT22;22070;50.922;5.430;2023-05-10T13:14:13;16.20;99.90
36002;DHT22;22070;50.922;5.430;2023-05-10T13:16:39;16.30;99.90
36002;DHT22;22070;50.922;5.430;2023-05-10T13:19:05;16.20;99.90
36002;DHT22;22070;50.922;5.430;2023-05-10T13:21:31;16.10;99.90
36002;DHT22;22070;50.922;5.430;2023-05-10T13:23:56;16.00;99.90
36002;DHT22;22070;50.922;5.430;2023-05-10T13:26:22;16.00;99.90
36002;DHT22;22070;50.922;5.430;2023-05-10T13:28:47;16.00;99.90
36002;DHT22;22070;50.922;5.430;2023-05-10T13:31:14;16.10;99.90
36002;DHT22;22070;50.922;5.430;2023-05-10T13:33:39;16.10;99.90
36002;DHT22;22070;50.922;5.430;2023-05-10T13:36:06;16.00;99.90
36002;DHT22;22070;50.922;5.430;2023-05-10T13:38:31;16.00;99.90
36002;DHT22;22070;50.922;5.430;2023-05-10T13:40:57;16.10;99.90
36002;DHT22;22070;50.922;5.430;2023-05-10T13:43:23;16.10;99.90
36002;DHT22;22070;50.922;5.430;2023-05-10T13:45:49;16.00;99.90
36002;DHT22;22070;50.922;5.430;2023-05-10T13:48:15;16.00;99.90
36002;DHT22;22070;50.922;5.430;2023-05-10T13:50:42;16.20;99.90
36002;DHT22;22070;50.922;5.430;2023-05-10T13:53:08;16.30;99.90
36002;DHT22;22070;50.922;5.430;2023-05-10T13:55:34;16.30;99.90
36002;DHT22;22070;50.922;5.430;2023-05-10T13:57:59;16.10;99.90
36002;DHT22;22070;50.922;5.430;2023-05-10T14:00:26;16.00;99.90
36002;DHT22;22070;50.922;5.430;2023-05-10T14:02:52;15.90;99.90
36002;DHT22;22070;50.922;5.430;2023-05-10T14:05:17;15.80;99.90
36002;DHT22;22070;50.922;5.430;2023-05-10T14:07:43;15.80;99.90
36002;DHT22;22070;50.922;5.430;2023-05-10T14:10:09;15.80;99.90
36002;DHT22;22070;50.922;5.430;2023-05-10T14:12:35;15.90;99.90
36002;DHT22;22070;50.922;5.430;2023-05-10T14:15:00;15.90;99.90
36002;DHT22;22070;50.922;5.430;2023-05-10T14:17:26;16.00;99.90
36002;DHT22;22070;50.922;5.430;2023-05-10T14:19:52;16.00;99.90
36002;DHT22;22070;50.922;5.430;2023-05-10T14:22:18;16.00;99.90
36002;DHT22;22070;50.922;5.430;2023-05-10T14:24:44;16.10;99.90
36002;DHT22;22070;50.922;5.430;2023-05-10T14:27:12;16.00;99.90
36002;DHT22;22070;50.922;5.430;2023-05-10T14:29:38;16.10;99.90
36002;DHT22;22070;50.922;5.430;2023-05-10T14:32:03;16.30;99.90
36002;DHT22;22070;50.922;5.430;2023-05-10T14:34:29;16.30;99.90
36002;DHT22;22070;50.922;5.430;2023-05-10T14:36:55;16.30;99.90
36002;DHT22;22070;50.922;5.430;2023-05-10T14:39:21;16.30;99.90
36002;DHT22;22070;50.922;5.430;2023-05-10T14:41:48;16.30;99.90
36002;DHT22;22070;50.922;5.430;2023-05-10T14:44:13;16.30;99.90
36002;DHT22;22070;50.922;5.430;2023-05-10T14:46:40;16.40;99.90
36002;DHT22;22070;50.922;5.430;2023-05-10T14:49:07;16.50;99.90
36002;DHT22;22070;50.922;5.430;2023-05-10T14:51:33;16.40;99.90
36002;DHT22;22070;50.922;5.430;2023-05-10T14:53:58;16.30;99.90
36002;DHT22;22070;50.922;5.430;2023-05-10T14:56:24;16.20;99.90
36002;DHT22;22070;50.922;5.430;2023-05-10T14:58:51;16.20;99.90
36002;DHT22;22070;50.922;5.430;2023-05-10T15:01:17;16.10;99.90
36002;DHT22;22070;50.922;5.430;2023-05-10T15:03:42;16.30;99.90
36002;DHT22;22070;50.922;5.430;2023-05-10T15:06:08;16.40;99.90
36002;DHT22;22070;50.922;5.430;2023-05-10T15:08:34;16.50;99.90
36002;DHT22;22070;50.922;5.430;2023-05-10T15:11:00;16.50;99.90
36002;DHT22;22070;50.922;5.430;2023-05-10T15:13:25;16.50;99.90
36002;DHT22;22070;50.922;5.430;2023-05-10T15:15:51;16.50;99.90
36002;DHT22;22070;50.922;5.430;2023-05-10T15:18:17;16.50;99.90
36002;DHT22;22070;50.922;5.430;2023-05-10T15:20:42;16.70;99.90
36002;DHT22;22070;50.922;5.430;2023-05-10T15:23:08;16.70;99.90
36002;DHT22;22070;50.922;5.430;2023-05-10T15:25:34;16.90;99.90
36002;DHT22;22070;50.922;5.430;2023-05-10T15:28:01;17.00;99.90
36002;DHT22;22070;50.922;5.430;2023-05-10T15:30:27;17.00;99.90
36002;DHT22;22070;50.922;5.430;2023-05-10T15:32:54;17.10;99.90
36002;DHT22;22070;50.922;5.430;2023-05-10T15:35:20;17.10;99.90
36002;DHT22;22070;50.922;5.430;2023-05-10T15:37:47;17.00;99.90
36002;DHT22;22070;50.922;5.430;2023-05-10T15:40:13;17.00;99.90
36002;DHT22;22070;50.922;5.430;2023-05-10T15:42:39;17.10;99.90
36002;DHT22;22070;50.922;5.430;2023-05-10T15:45:05;17.30;99.90
36002;DHT22;22070;50.922;5.430;2023-05-10T15:47:31;17.50;99.90
36002;DHT22;22070;50.922;5.430;2023-05-10T15:49:57;17.40;99.90
36002;DHT22;22070;50.922;5.430;2023-05-10T15:52:22;17.20;99.90
36002;DHT22;22070;50.922;5.430;2023-05-10T15:54:49;17.20;99.90